Hauptseite
METAR-TAF:

METAR-TAF

Flughäfen :

Flughafen Marka International

Amman, Jordanien

Breite: 31-59N, Länge: 035-59E, Höhe: 767 m

Beobachtung

Neuester Wetterbericht von vor 24 Minuten, um 16:00 UTC
Wind 3 kt aus West/Südwest
Temperatur 7°C
Luftfeuchtigkeit 61%
Luftdruck 1029 hPa
Sichtweite: 6000 m

METAR: OJAM 251600Z 24003KT 6000 NSC 07/00 Q1029 NOSIG

Zeit: 18:24 (16:24 UTC)

Prognose

Neuester Wetterbericht von vor 6 Stunden und 21 Minuten, um 10:03 UTC
Gültige Prognose vom 25 um 12 UTC bis 26 um 18 UTC
Wind 4 kt aus West
Sichtweite: 8000 m
Leicht bewölkt in der Höhe von 3000 ft
Wahrscheinlichkeit 30%
vom 26 um 00 UTC bis 26 um 06 UTC
Wind 1 kt aus unterschiedlichen Richtungen
Sichtweite: 2000 m
feuchter Dunst

TAF: OJAM 251003Z 2512/2618 28004KT 8000 FEW030 PROB30 2600/2606 VRB01KT 2000 BR

Wetterbeobachtungen und Prognosen von mehr als 4000 Flughäfen (METAR und TAF Bericht).

Die verfügbaren Stationen werden durch gelbe und rote Markierungen auf der Karte dargestellt.

Führen Sie die Maus auf sie, um den Namen der Station zu sehen.

Darauf klicken, um die Beobachtung von Wetterbeobachtungen und Prognosen zu sehen.

Um die Karte zu ändern : klicken Sie auf den grünen Tasten mit einem schwarzen Kreuz Zum Vergrößern, auf den grünen Button mit einem Gedankenstrich zu verkleinern, oder auf die grünen Pfeile für benachbarte Karten.


METAR-TAF: